Artemas, Pennsylvania
Current Conditions -  °F | °C
As of 3:33 AM on Friday 28 Nov 2014 (Local Time) from KCBE Reporting Station
Overcast Overcast  
Wind Chill: 30°   Ceiling: 4100
Heat Index: 34°   Visibility: 10mi
Dew Point: 21°   Wind: 5mph
Humidity: 60%   Direction: 320°NW
Pressure: 30.26"   Gusts: 18mph
Location:  39.75°N, 78.44°W
Report Text: KCBE 280833Z AUTO 32004G16KT 10SM BKN041 OVC048 01/M06 A3026 RMK AO1
Loading
Personal Weather Stations






























Interactive Weather Map New forecast layout! Learn more

10-Day Weather Forecast

Advertisements
Track Severe Weather on mobile